createdAt,value
2022-11-10T00:00:24.046Z,3.55
2022-11-10T00:02:52.165Z,3.22
2022-11-10T00:05:20.350Z,3.97
2022-11-10T00:07:49.887Z,3.67
2022-11-10T00:10:18.715Z,3.53
2022-11-10T00:12:46.904Z,3.35
2022-11-10T00:15:32.555Z,3.30
2022-11-10T00:18:02.705Z,3.70
2022-11-10T00:20:31.137Z,3.40
2022-11-10T00:23:00.657Z,3.28
2022-11-10T00:25:29.079Z,3.40
2022-11-10T00:28:00.020Z,3.72
2022-11-10T00:32:56.036Z,3.95
2022-11-10T00:35:24.133Z,3.17
2022-11-10T00:37:52.549Z,4.45
2022-11-10T00:40:22.980Z,3.58
2022-11-10T00:42:51.294Z,3.28
2022-11-10T00:45:19.416Z,3.20
2022-11-10T00:47:47.842Z,4.57
2022-11-10T00:50:16.313Z,3.38
2022-11-10T00:52:44.504Z,3.10
2022-11-10T00:55:12.647Z,3.22
2022-11-10T00:57:42.182Z,3.65
2022-11-10T01:00:11.781Z,3.03
2022-11-10T01:02:39.963Z,3.20
2022-11-10T01:05:08.882Z,3.30
2022-11-10T01:07:37.111Z,3.40
2022-11-10T01:10:06.081Z,3.88
2022-11-10T01:12:34.186Z,3.33
2022-11-10T01:15:04.723Z,3.38
2022-11-10T01:17:33.048Z,3.17
2022-11-10T01:20:01.150Z,3.30
2022-11-10T01:22:29.322Z,3.20
2022-11-10T01:24:57.389Z,3.10
2022-11-10T01:27:25.572Z,3.33
2022-11-10T01:29:53.733Z,3.25
2022-11-10T01:32:23.248Z,3.22
2022-11-10T01:34:51.460Z,3.03
2022-11-10T01:37:19.732Z,3.22
2022-11-10T01:39:47.915Z,3.17
2022-11-10T01:42:16.027Z,3.13
2022-11-10T01:45:13.015Z,3.08
2022-11-10T01:47:42.544Z,3.45
2022-11-10T01:50:10.852Z,3.75
2022-11-10T01:52:39.200Z,3.30
2022-11-10T01:55:07.946Z,3.25
2022-11-10T01:57:36.996Z,3.00
2022-11-10T02:00:06.200Z,3.22
2022-11-10T02:02:40.660Z,3.13
2022-11-10T02:05:10.904Z,3.30
2022-11-10T02:07:40.166Z,2.90
2022-11-10T02:10:17.365Z,2.83
2022-11-10T02:12:46.620Z,3.25
2022-11-10T02:15:16.785Z,3.30
2022-11-10T02:17:46.971Z,3.27
2022-11-10T02:20:19.565Z,3.20
2022-11-10T02:22:49.102Z,3.65
2022-11-10T02:25:21.139Z,3.20
2022-11-10T02:27:49.459Z,2.92
2022-11-10T02:30:18.163Z,3.33
2022-11-10T02:32:46.370Z,3.60
2022-11-10T02:35:14.524Z,3.15
2022-11-10T02:37:42.676Z,3.00
2022-11-10T02:40:13.060Z,3.38
2022-11-10T02:42:41.171Z,3.05
2022-11-10T02:45:09.891Z,3.30
2022-11-10T02:47:38.098Z,2.95
2022-11-10T02:50:06.862Z,3.28
2022-11-10T02:52:35.000Z,3.38
2022-11-10T02:55:03.241Z,3.30
2022-11-10T02:57:32.758Z,3.60
2022-11-10T03:00:01.325Z,2.80
2022-11-10T03:02:32.211Z,3.30
2022-11-10T03:05:01.021Z,3.30
2022-11-10T03:07:29.149Z,3.10
2022-11-10T03:09:57.270Z,3.10
2022-11-10T03:12:25.426Z,3.33
2022-11-10T03:14:55.025Z,2.88
2022-11-10T03:17:23.380Z,3.15
2022-11-10T03:19:51.794Z,2.92
2022-11-10T03:22:19.979Z,2.90
2022-11-10T03:24:48.049Z,3.05
2022-11-10T03:27:16.174Z,3.17
2022-11-10T03:29:44.326Z,2.88
2022-11-10T03:32:13.962Z,3.58
2022-11-10T03:34:42.149Z,3.42
2022-11-10T03:37:10.350Z,3.15
2022-11-10T03:39:38.605Z,2.92
2022-11-10T03:42:07.078Z,3.30
2022-11-10T03:44:35.230Z,3.15
2022-11-10T03:47:04.062Z,2.95
2022-11-10T03:49:33.539Z,2.70
2022-11-10T03:52:01.701Z,3.20
2022-11-10T03:54:30.055Z,2.72
2022-11-10T03:56:58.179Z,2.83
2022-11-10T03:59:26.281Z,3.15
2022-11-10T04:01:54.482Z,2.90
2022-11-10T04:04:39.946Z,2.80
2022-11-10T04:07:27.701Z,3.17
2022-11-10T04:09:55.885Z,2.97
2022-11-10T04:12:41.611Z,3.40
2022-11-10T04:15:37.792Z,3.25
2022-11-10T04:18:19.907Z,2.78
2022-11-10T04:20:48.680Z,2.97
2022-11-10T04:23:31.752Z,3.28
2022-11-10T04:26:19.824Z,2.80
2022-11-10T04:28:49.283Z,3.05
2022-11-10T04:31:19.178Z,3.10
2022-11-10T04:33:48.621Z,2.80
2022-11-10T04:36:18.739Z,3.00
2022-11-10T04:38:48.554Z,3.03
2022-11-10T04:41:17.254Z,3.05
2022-11-10T04:43:45.579Z,3.03
2022-11-10T04:46:22.175Z,2.88
2022-11-10T04:48:51.046Z,2.95
2022-11-10T04:51:20.473Z,2.95
2022-11-10T04:53:50.097Z,3.03
2022-11-10T04:56:19.454Z,3.03
2022-11-10T04:58:48.095Z,3.05
2022-11-10T05:01:19.138Z,2.90
2022-11-10T05:03:48.235Z,3.10
2022-11-10T05:06:16.552Z,3.20
2022-11-10T05:08:45.250Z,3.20
2022-11-10T05:11:14.876Z,3.00
2022-11-10T05:13:43.564Z,3.33
2022-11-10T05:16:12.354Z,3.50
2022-11-10T05:18:40.755Z,3.00
2022-11-10T05:21:08.989Z,3.00
2022-11-10T05:23:39.894Z,2.83
2022-11-10T05:28:38.307Z,2.97
2022-11-10T05:31:06.868Z,3.40
2022-11-10T05:33:36.091Z,2.97
2022-11-10T05:36:05.184Z,2.85
2022-11-10T05:38:33.421Z,3.20
2022-11-10T05:41:01.736Z,2.97
2022-11-10T05:43:29.942Z,2.85
2022-11-10T05:45:59.781Z,3.10
2022-11-10T05:48:27.901Z,2.72
2022-11-10T05:50:56.012Z,3.38
2022-11-10T05:53:24.451Z,3.38
2022-11-10T05:55:52.808Z,2.90
2022-11-10T05:58:20.906Z,2.92
2022-11-10T06:00:49.048Z,2.60
2022-11-10T06:03:20.677Z,3.25
2022-11-10T06:05:49.557Z,3.15
2022-11-10T06:08:18.145Z,3.17
2022-11-10T06:10:46.259Z,3.00
2022-11-10T06:13:14.394Z,2.78
2022-11-10T06:15:47.525Z,3.00
2022-11-10T06:18:19.721Z,2.80
2022-11-10T06:20:48.340Z,3.08
2022-11-10T06:23:16.758Z,3.10
2022-11-10T06:25:45.863Z,2.95
2022-11-10T06:28:14.813Z,3.17
2022-11-10T06:30:43.278Z,2.90
2022-11-10T06:33:11.400Z,2.60
2022-11-10T06:35:40.956Z,3.03
2022-11-10T06:38:11.810Z,2.45
2022-11-10T06:40:40.223Z,2.75
2022-11-10T06:43:08.359Z,3.13
2022-11-10T06:45:36.507Z,2.47
2022-11-10T06:48:06.682Z,2.70
2022-11-10T06:50:34.905Z,2.73
2022-11-10T06:53:04.453Z,2.70
2022-11-10T06:55:33.160Z,3.00
2022-11-10T06:58:01.323Z,3.10
2022-11-10T07:00:30.499Z,2.85
2022-11-10T07:03:03.452Z,2.72
2022-11-10T07:05:33.875Z,2.90
2022-11-10T07:08:07.185Z,2.65
2022-11-10T07:10:36.342Z,3.00
2022-11-10T07:13:05.969Z,2.80
2022-11-10T07:15:34.667Z,2.95
2022-11-10T07:18:03.686Z,2.60
2022-11-10T07:20:32.224Z,3.00
2022-11-10T07:23:01.324Z,2.97
2022-11-10T07:25:32.456Z,3.13
2022-11-10T07:28:01.804Z,2.60
2022-11-10T07:30:31.744Z,2.72
2022-11-10T07:33:03.890Z,2.75
2022-11-10T07:35:33.172Z,2.90
2022-11-10T07:38:04.151Z,3.08
2022-11-10T07:43:02.001Z,2.70
2022-11-10T07:45:30.619Z,2.90
2022-11-10T07:48:02.072Z,2.97
2022-11-10T07:50:30.677Z,3.22
2022-11-10T07:53:06.999Z,2.85
2022-11-10T07:55:38.103Z,3.10
2022-11-10T07:58:06.650Z,2.75
2022-11-10T08:00:35.303Z,2.95
2022-11-10T08:03:05.053Z,3.13
2022-11-10T08:05:33.889Z,3.58
2022-11-10T08:08:03.432Z,3.13
2022-11-10T08:10:32.798Z,3.83
2022-11-10T08:13:04.645Z,3.55
2022-11-10T08:15:34.257Z,3.40
2022-11-10T08:18:03.412Z,3.53
2022-11-10T08:20:32.905Z,3.30
2022-11-10T08:23:02.413Z,3.10
2022-11-10T08:25:34.891Z,2.72
2022-11-10T08:28:07.517Z,2.65
2022-11-10T08:30:37.000Z,3.40
2022-11-10T08:33:07.466Z,3.25
2022-11-10T08:35:38.515Z,2.78
2022-11-10T08:40:38.264Z,2.70
2022-11-10T08:43:09.076Z,3.00
2022-11-10T08:45:38.128Z,3.13
2022-11-10T08:48:08.237Z,2.90
2022-11-10T08:50:37.022Z,3.57
2022-11-10T08:53:06.811Z,3.03
2022-11-10T08:55:35.149Z,3.00
2022-11-10T08:58:06.260Z,3.40
2022-11-10T09:00:36.269Z,3.40
2022-11-10T09:03:06.853Z,2.70
2022-11-10T09:05:35.898Z,3.10
2022-11-10T09:08:05.083Z,2.92
2022-11-10T09:10:33.344Z,2.88
2022-11-10T09:13:02.362Z,2.97
2022-11-10T09:15:31.154Z,2.55
2022-11-10T09:18:01.104Z,3.10
2022-11-10T09:20:30.272Z,3.25
2022-11-10T09:22:58.635Z,3.40
2022-11-10T09:25:26.758Z,2.95
2022-11-10T09:27:54.855Z,3.33
2022-11-10T09:30:23.231Z,2.85
2022-11-10T09:32:55.132Z,3.22
2022-11-10T09:35:24.779Z,3.17
2022-11-10T09:37:53.030Z,3.08
2022-11-10T09:40:24.980Z,3.13
2022-11-10T09:42:56.512Z,3.03
2022-11-10T09:45:28.924Z,3.20
2022-11-10T09:48:01.963Z,3.10
2022-11-10T09:50:38.510Z,3.15
2022-11-10T09:53:13.292Z,2.90
2022-11-10T09:55:46.192Z,3.08
2022-11-10T09:58:15.161Z,2.70
2022-11-10T10:00:47.660Z,2.72
2022-11-10T10:03:24.553Z,3.00
2022-11-10T10:06:06.041Z,2.70
2022-11-10T10:08:46.519Z,3.10
2022-11-10T10:11:28.154Z,2.90
2022-11-10T10:14:11.164Z,3.17
2022-11-10T10:16:44.948Z,2.80
2022-11-10T10:19:23.116Z,2.67
2022-11-10T10:22:18.573Z,2.78
2022-11-10T10:24:46.908Z,2.90
2022-11-10T10:27:21.310Z,3.33
2022-11-10T10:29:50.646Z,3.08
2022-11-10T10:32:19.637Z,2.75
2022-11-10T10:34:48.246Z,2.88
2022-11-10T10:37:31.616Z,2.90
2022-11-10T10:40:00.036Z,3.05
2022-11-10T10:42:33.573Z,2.90
2022-11-10T10:45:18.917Z,2.55
2022-11-10T10:47:47.984Z,2.83
2022-11-10T10:50:28.723Z,2.88
2022-11-10T10:53:15.445Z,2.67
2022-11-10T10:55:54.625Z,2.90
2022-11-10T10:58:26.871Z,3.03
2022-11-10T11:01:04.554Z,2.97
2022-11-10T11:03:41.898Z,2.70
2022-11-10T11:06:20.898Z,2.80
2022-11-10T11:08:59.911Z,3.20
2022-11-10T11:11:31.377Z,2.80
2022-11-10T11:14:15.670Z,3.15
2022-11-10T11:16:51.444Z,2.60
2022-11-10T11:19:21.812Z,2.63
2022-11-10T11:22:04.106Z,2.65
2022-11-10T11:24:40.773Z,2.67
2022-11-10T11:27:15.316Z,2.67
2022-11-10T11:30:03.930Z,2.70
2022-11-10T11:32:57.429Z,2.53
2022-11-10T11:35:31.465Z,2.92
2022-11-10T11:38:09.395Z,2.83
2022-11-10T11:40:52.755Z,2.70
2022-11-10T11:43:50.737Z,3.10
2022-11-10T11:46:28.911Z,2.83
2022-11-10T11:49:10.332Z,2.60
2022-11-10T11:51:47.634Z,2.85
2022-11-10T11:54:28.586Z,3.30
2022-11-10T11:57:10.231Z,2.88
2022-11-10T11:59:51.239Z,3.13
2022-11-10T12:05:17.018Z,3.70
2022-11-10T12:07:53.157Z,3.15
2022-11-10T12:10:32.446Z,3.33
2022-11-10T12:13:16.654Z,3.30
2022-11-10T12:15:52.778Z,3.20
2022-11-10T12:18:31.451Z,3.20
2022-11-10T12:21:15.314Z,3.65
2022-11-10T12:24:09.970Z,3.08
2022-11-10T12:26:44.381Z,3.10
2022-11-10T12:29:25.087Z,3.30
2022-11-10T12:31:56.966Z,3.40
2022-11-10T12:34:33.565Z,3.25
2022-11-10T12:37:05.076Z,3.03
2022-11-10T12:39:44.080Z,3.28
2022-11-10T12:42:18.365Z,3.42
2022-11-10T12:44:59.533Z,3.03
2022-11-10T12:47:32.918Z,3.28
2022-11-10T12:50:19.856Z,3.08
2022-11-10T12:52:54.696Z,2.95
2022-11-10T12:55:31.491Z,3.28
2022-11-10T12:58:01.463Z,3.00
2022-11-10T13:00:43.431Z,3.42
2022-11-10T13:03:16.860Z,2.85
2022-11-10T13:05:46.372Z,3.75
2022-11-10T13:08:24.894Z,4.80
2022-11-10T13:10:56.407Z,5.07
2022-11-10T13:13:25.236Z,5.47
2022-11-10T13:15:57.349Z,6.53
2022-11-10T13:19:00.858Z,5.93
2022-11-10T13:22:07.258Z,6.20
2022-11-10T13:24:37.166Z,6.47
2022-11-10T13:27:11.311Z,6.88
2022-11-10T13:29:56.304Z,6.30
2022-11-10T13:32:31.021Z,5.60
2022-11-10T13:35:31.456Z,5.47
2022-11-10T13:37:59.738Z,5.57
2022-11-10T13:40:35.231Z,5.93
2022-11-10T13:43:24.879Z,5.53
2022-11-10T13:46:04.233Z,5.57
2022-11-10T13:48:58.034Z,5.43
2022-11-10T13:51:33.815Z,4.95
2022-11-10T13:54:26.782Z,5.68
2022-11-10T13:57:08.848Z,4.90
2022-11-10T13:59:48.875Z,5.28
2022-11-10T14:02:56.611Z,5.97
2022-11-10T14:06:02.709Z,6.90
2022-11-10T14:08:39.595Z,6.70
2022-11-10T14:11:36.845Z,5.60
2022-11-10T14:14:14.234Z,6.32
2022-11-10T14:16:44.646Z,6.05
2022-11-10T14:19:29.221Z,5.97
2022-11-10T14:22:02.130Z,5.93
2022-11-10T14:24:37.057Z,5.35
2022-11-10T14:27:09.153Z,5.80
2022-11-10T14:29:40.011Z,6.25
2022-11-10T14:32:17.661Z,5.15
2022-11-10T14:34:48.962Z,6.00
2022-11-10T14:37:22.864Z,5.13
2022-11-10T14:39:55.503Z,5.80
2022-11-10T14:42:26.355Z,5.78
2022-11-10T14:45:15.525Z,5.20
2022-11-10T14:47:43.772Z,5.50
2022-11-10T14:50:21.128Z,6.25
2022-11-10T14:52:53.102Z,5.57
2022-11-10T14:55:25.379Z,5.60
2022-11-10T14:57:57.745Z,5.07
2022-11-10T15:00:28.170Z,5.35
2022-11-10T15:02:58.828Z,5.07
2022-11-10T15:05:27.455Z,6.65
2022-11-10T15:07:58.178Z,5.40
2022-11-10T15:10:29.847Z,5.75
2022-11-10T15:13:06.773Z,5.07
2022-11-10T15:15:35.842Z,5.40
2022-11-10T15:18:04.113Z,5.55
2022-11-10T15:20:35.371Z,5.85
2022-11-10T15:23:05.750Z,5.80
2022-11-10T15:25:38.507Z,5.60
2022-11-10T15:28:16.021Z,6.68
2022-11-10T15:30:52.599Z,6.10
2022-11-10T15:33:26.457Z,6.05
2022-11-10T15:35:55.858Z,5.72
2022-11-10T15:38:31.454Z,5.35
2022-11-10T15:41:15.634Z,6.05
2022-11-10T15:43:43.993Z,5.88
2022-11-10T15:46:18.067Z,5.35
2022-11-10T15:48:49.049Z,4.90
2022-11-10T15:51:24.686Z,5.55
2022-11-10T15:53:55.415Z,5.00
2022-11-10T15:56:26.091Z,4.40
2022-11-10T15:58:59.213Z,5.03
2022-11-10T16:01:31.593Z,4.97
2022-11-10T16:03:59.997Z,4.85
2022-11-10T16:06:30.427Z,4.90
2022-11-10T16:08:58.712Z,5.13
2022-11-10T16:11:29.640Z,5.15
2022-11-10T16:16:26.460Z,6.03
2022-11-10T16:18:54.673Z,6.30
2022-11-10T16:21:24.921Z,6.00
2022-11-10T16:23:54.076Z,5.37
2022-11-10T16:26:24.775Z,5.30
2022-11-10T16:28:54.471Z,5.32
2022-11-10T16:31:23.456Z,4.90
2022-11-10T16:33:51.770Z,4.80
2022-11-10T16:36:24.796Z,5.70
2022-11-10T16:38:54.181Z,5.18
2022-11-10T16:41:23.696Z,4.72
2022-11-10T16:43:53.631Z,4.75
2022-11-10T16:46:23.313Z,5.63
2022-11-10T16:48:52.690Z,4.80
2022-11-10T16:51:28.615Z,5.15
2022-11-10T16:53:56.776Z,4.65
2022-11-10T16:56:26.754Z,4.63
2022-11-10T16:58:56.421Z,4.75
2022-11-10T17:01:27.846Z,5.20
2022-11-10T17:03:58.931Z,4.68
2022-11-10T17:06:29.230Z,4.90
2022-11-10T17:09:09.248Z,4.43
2022-11-10T17:11:38.211Z,4.07
2022-11-10T17:14:08.489Z,4.63
2022-11-10T17:16:39.401Z,4.63
2022-11-10T17:19:08.879Z,5.13
2022-11-10T17:21:38.187Z,4.85
2022-11-10T17:24:07.118Z,5.18
2022-11-10T17:26:35.838Z,4.28
2022-11-10T17:29:04.137Z,4.38
2022-11-10T17:31:34.002Z,4.65
2022-11-10T17:34:02.162Z,4.25
2022-11-10T17:36:32.880Z,4.60
2022-11-10T17:39:01.141Z,4.32
2022-11-10T17:41:29.339Z,4.45
2022-11-10T17:43:57.517Z,4.85
2022-11-10T17:46:25.666Z,4.22
2022-11-10T17:49:00.127Z,4.00
2022-11-10T17:51:33.483Z,3.90
2022-11-10T17:54:04.506Z,4.30
2022-11-10T17:59:01.288Z,4.43
2022-11-10T18:01:29.478Z,4.35
2022-11-10T18:03:59.556Z,4.13
2022-11-10T18:06:27.847Z,4.53
2022-11-10T18:08:56.070Z,4.57
2022-11-10T18:11:24.267Z,3.83
2022-11-10T18:13:52.436Z,4.20
2022-11-10T18:16:20.717Z,4.32
2022-11-10T18:18:48.816Z,4.50
2022-11-10T18:21:18.346Z,4.65
2022-11-10T18:23:46.457Z,4.57
2022-11-10T18:26:14.634Z,4.38
2022-11-10T18:28:43.320Z,4.47
2022-11-10T18:31:13.752Z,4.10
2022-11-10T18:33:42.204Z,4.38
2022-11-10T18:36:11.321Z,4.25
2022-11-10T18:38:40.804Z,4.32
2022-11-10T18:41:26.751Z,4.65
2022-11-10T18:43:54.944Z,4.57
2022-11-10T18:46:23.346Z,4.25
2022-11-10T18:48:51.868Z,3.95
2022-11-10T18:51:19.980Z,4.22
2022-11-10T18:53:49.518Z,4.32
2022-11-10T18:56:17.718Z,4.18
2022-11-10T18:58:46.123Z,4.18
2022-11-10T19:01:14.595Z,4.25
2022-11-10T19:03:43.725Z,4.13
2022-11-10T19:06:13.094Z,4.05
2022-11-10T19:08:41.505Z,4.30
2022-11-10T19:11:14.610Z,3.80
2022-11-10T19:13:43.004Z,3.70
2022-11-10T19:16:13.135Z,4.47
2022-11-10T19:18:42.840Z,4.27
2022-11-10T19:21:12.560Z,4.30
2022-11-10T19:23:41.443Z,4.22
2022-11-10T19:26:17.889Z,4.28
2022-11-10T19:28:49.111Z,4.13
2022-11-10T19:31:19.013Z,4.00
2022-11-10T19:33:47.742Z,4.10
2022-11-10T19:36:18.246Z,3.88
2022-11-10T19:38:46.630Z,3.70
2022-11-10T19:41:18.142Z,4.07
2022-11-10T19:43:47.780Z,4.00
2022-11-10T19:46:18.144Z,4.03
2022-11-10T19:48:46.578Z,4.27
2022-11-10T19:51:16.314Z,4.78
2022-11-10T19:53:46.301Z,3.90
2022-11-10T19:56:17.468Z,4.05
2022-11-10T19:58:46.233Z,3.78
2022-11-10T20:01:15.201Z,3.90
2022-11-10T20:03:43.679Z,4.28
2022-11-10T20:06:14.635Z,3.95
2022-11-10T20:11:13.985Z,4.07
2022-11-10T20:13:43.701Z,3.90
2022-11-10T20:16:13.319Z,3.90
2022-11-10T20:18:42.208Z,4.22
2022-11-10T20:21:12.175Z,4.50
2022-11-10T20:23:42.808Z,4.60
2022-11-10T20:26:13.205Z,4.32
2022-11-10T20:28:43.284Z,3.88
2022-11-10T20:31:13.569Z,4.00
2022-11-10T20:33:41.923Z,4.47
2022-11-10T20:36:18.952Z,3.92
2022-11-10T20:38:49.244Z,4.40
2022-11-10T20:41:19.444Z,4.07
2022-11-10T20:43:49.630Z,4.33
2022-11-10T20:46:53.076Z,4.40
2022-11-10T20:49:08.749Z,3.97
2022-11-10T20:51:36.957Z,3.92
2022-11-10T20:54:05.311Z,4.28
2022-11-10T20:56:33.493Z,4.10
2022-11-10T20:59:03.207Z,3.97
2022-11-10T21:01:32.567Z,4.43
2022-11-10T21:04:02.675Z,4.80
2022-11-10T21:06:30.924Z,4.25
2022-11-10T21:08:59.186Z,4.45
2022-11-10T21:11:44.508Z,3.70
2022-11-10T21:14:14.082Z,3.95
2022-11-10T21:16:42.506Z,4.13
2022-11-10T21:19:10.749Z,3.88
2022-11-10T21:21:38.889Z,4.20
2022-11-10T21:24:08.903Z,4.13
2022-11-10T21:26:37.777Z,4.05
2022-11-10T21:29:07.906Z,4.10
2022-11-10T21:31:37.465Z,4.10
2022-11-10T21:34:06.390Z,4.03
2022-11-10T21:36:34.553Z,3.80
2022-11-10T21:39:02.730Z,3.78
2022-11-10T21:41:30.845Z,4.03
2022-11-10T21:43:59.430Z,4.03
2022-11-10T21:46:27.682Z,3.70
2022-11-10T21:48:57.883Z,3.85
2022-11-10T21:51:27.523Z,4.00
2022-11-10T21:53:55.656Z,4.10
2022-11-10T21:56:23.873Z,4.57
2022-11-10T21:58:52.083Z,4.53
2022-11-10T22:01:20.604Z,4.25
2022-11-10T22:03:48.979Z,4.13
2022-11-10T22:06:19.773Z,3.75
2022-11-10T22:08:48.974Z,3.67
2022-11-10T22:11:35.901Z,4.35
2022-11-10T22:14:30.320Z,4.30
2022-11-10T22:17:16.424Z,4.13
2022-11-10T22:19:45.504Z,3.97
2022-11-10T22:22:15.252Z,4.20
2022-11-10T22:24:43.527Z,4.15
2022-11-10T22:27:11.626Z,4.32
2022-11-10T22:29:39.712Z,4.65
2022-11-10T22:32:07.985Z,4.20
2022-11-10T22:34:36.119Z,3.90
2022-11-10T22:37:04.378Z,4.10
2022-11-10T22:39:48.235Z,4.38
2022-11-10T22:42:33.831Z,3.72
2022-11-10T22:45:02.066Z,4.30
2022-11-10T22:47:50.251Z,4.07
2022-11-10T22:50:18.402Z,3.65
2022-11-10T22:52:46.518Z,4.00
2022-11-10T22:55:16.285Z,4.00
2022-11-10T22:57:44.484Z,4.07
2022-11-10T23:00:14.176Z,3.60
2022-11-10T23:02:42.367Z,4.03
2022-11-10T23:05:10.893Z,4.18
2022-11-10T23:07:39.133Z,3.75
2022-11-10T23:10:08.281Z,4.03
2022-11-10T23:12:37.811Z,4.35
2022-11-10T23:15:06.331Z,3.63
2022-11-10T23:17:34.525Z,3.90
2022-11-10T23:20:02.595Z,4.10
2022-11-10T23:22:30.794Z,4.20
2022-11-10T23:24:59.025Z,4.18
2022-11-10T23:27:27.169Z,4.15
2022-11-10T23:29:56.712Z,4.40
2022-11-10T23:32:24.849Z,3.90
2022-11-10T23:34:53.041Z,4.18
2022-11-10T23:37:21.425Z,3.88
2022-11-10T23:39:49.564Z,4.20
2022-11-10T23:42:17.824Z,3.75
2022-11-10T23:44:46.123Z,3.97
2022-11-10T23:47:15.703Z,4.13
2022-11-10T23:49:43.881Z,4.68
2022-11-10T23:52:12.111Z,4.38
2022-11-10T23:54:40.204Z,3.70
2022-11-10T23:57:08.366Z,4.32
2022-11-10T23:59:36.498Z,4.30
